Time;durP1;ratioP1;P1;durP2;ratioP2;P2;SDS_P1;SDS_P2;PMS_P1;PMS_P2;Temp;Humidity;BMP_temperature;BMP_pressure;BME280_temperature;BME280_humidity;BME280_pressure;Samples;Min_cycle;Max_cycle;Signal;HPM_P1;HPM_P2
2024/02/03 00:02:06;;;;;;;3.00;1.80;;;6.40;99.90;;;;;;6042680;23;20082;-81
2024/02/03 00:04:58;;;;;;;1.92;1.60;;;6.30;99.90;;;;;;6066353;23;20117;-82
2024/02/03 00:07:47;;;;;;;2.05;1.90;;;6.20;99.90;;;;;;6065751;23;20047;-81
2024/02/03 00:10:37;;;;;;;2.03;1.83;;;6.10;99.90;;;;;;6062506;23;20019;-83
2024/02/03 00:13:28;;;;;;;2.17;1.80;;;6.00;99.90;;;;;;6061289;23;20026;-80
2024/02/03 00:16:15;;;;;;;6.38;2.17;;;5.80;99.90;;;;;;6060716;23;20027;-80
2024/02/03 00:19:04;;;;;;;3.17;2.33;;;5.70;99.90;;;;;;6078317;23;20019;-81
2024/02/03 00:21:54;;;;;;;3.65;2.58;;;5.70;99.90;;;;;;6085224;23;20022;-80
2024/02/03 00:24:42;;;;;;;3.90;2.65;;;5.70;99.90;;;;;;6090465;23;20075;-82
2024/02/03 00:27:31;;;;;;;3.38;2.33;;;5.70;99.90;;;;;;6060928;23;20142;-80
2024/02/03 00:30:18;;;;;;;2.83;2.22;;;5.70;99.90;;;;;;6053630;23;20037;-81
2024/02/03 00:33:06;;;;;;;2.92;2.22;;;5.80;99.90;;;;;;6073867;23;20023;-81
2024/02/03 00:35:54;;;;;;;3.45;2.15;;;5.80;99.90;;;;;;6073935;23;20031;-82
2024/02/03 00:38:46;;;;;;;4.13;2.40;;;5.80;99.90;;;;;;6064684;23;20037;-79
2024/02/03 00:41:33;;;;;;;2.60;1.95;;;5.90;99.90;;;;;;6045218;23;20055;-83
2024/02/03 00:44:22;;;;;;;1.85;1.73;;;6.00;99.90;;;;;;6061921;23;20571;-81
2024/02/03 00:47:10;;;;;;;1.80;1.70;;;6.10;99.90;;;;;;6064762;23;20110;-81
2024/02/03 00:49:57;;;;;;;2.30;1.70;;;6.10;99.90;;;;;;6063106;23;20026;-80
2024/02/03 00:52:44;;;;;;;2.05;1.70;;;6.10;99.90;;;;;;6063674;23;20027;-83
2024/02/03 00:55:32;;;;;;;1.90;1.52;;;6.20;99.90;;;;;;6062665;23;20106;-81
2024/02/03 00:58:21;;;;;;;1.63;1.52;;;6.20;99.90;;;;;;6065032;23;20036;-81
2024/02/03 01:01:10;;;;;;;1.60;1.50;;;6.20;99.90;;;;;;6072294;23;20031;-81
2024/02/03 01:03:58;;;;;;;3.92;1.70;;;6.10;99.90;;;;;;6059452;23;20413;-80
2024/02/03 01:06:46;;;;;;;4.30;2.28;;;6.10;99.90;;;;;;6090876;23;20021;-80
2024/02/03 01:09:34;;;;;;;2.55;1.70;;;6.00;99.90;;;;;;6084948;23;20015;-78
2024/02/03 01:12:22;;;;;;;2.35;1.60;;;6.00;99.90;;;;;;6042118;23;20026;-80
2024/02/03 01:15:11;;;;;;;2.00;1.40;;;5.90;99.90;;;;;;6074355;23;20031;-84
2024/02/03 01:18:00;;;;;;;1.70;1.60;;;6.00;99.90;;;;;;6073164;23;20050;-82
2024/02/03 01:20:48;;;;;;;1.40;1.30;;;6.10;99.90;;;;;;6062710;23;20405;-81
2024/02/03 01:23:35;;;;;;;3.20;1.52;;;6.30;99.90;;;;;;6061505;23;20034;-81
2024/02/03 01:26:24;;;;;;;1.45;1.30;;;6.40;99.90;;;;;;6039775;23;20394;-83
2024/02/03 01:29:17;;;;;;;2.15;1.50;;;6.50;99.90;;;;;;6031629;23;20462;-79
2024/02/03 01:32:05;;;;;;;1.48;1.25;;;6.60;99.90;;;;;;6075703;23;20022;-82
2024/02/03 01:34:52;;;;;;;2.10;1.50;;;6.70;99.90;;;;;;6056482;23;20027;-80
2024/02/03 01:37:45;;;;;;;1.42;1.20;;;6.80;99.90;;;;;;6043276;23;20090;-83
2024/02/03 01:40:32;;;;;;;1.50;1.38;;;6.70;99.90;;;;;;6068868;23;20033;-81
2024/02/03 01:43:28;;;;;;;1.30;1.20;;;6.70;99.90;;;;;;6069631;23;20454;-82
2024/02/03 01:46:17;;;;;;;1.40;1.23;;;6.60;99.90;;;;;;6075063;23;20949;-83
2024/02/03 01:49:07;;;;;;;1.83;1.42;;;6.50;99.90;;;;;;6069242;23;20019;-82
2024/02/03 01:51:55;;;;;;;1.45;1.35;;;6.40;99.90;;;;;;6076552;23;20078;-83
2024/02/03 01:54:45;;;;;;;1.70;1.60;;;6.30;99.90;;;;;;6065436;23;20497;-83
2024/02/03 01:57:34;;;;;;;1.55;1.35;;;6.30;99.90;;;;;;6063411;23;20058;-81
2024/02/03 02:00:21;;;;;;;2.15;1.50;;;6.20;99.90;;;;;;6075913;23;20059;-81
2024/02/03 02:03:12;;;;;;;1.45;1.35;;;6.10;99.90;;;;;;6072465;23;20035;-82
2024/02/03 02:06:01;;;;;;;2.13;1.92;;;6.00;99.90;;;;;;6062370;23;20038;-80
2024/02/03 02:08:52;;;;;;;2.70;1.77;;;5.80;99.90;;;;;;6062375;23;20030;-80
2024/02/03 02:11:42;;;;;;;1.85;1.70;;;5.80;99.90;;;;;;6060400;23;20390;-81
2024/02/03 02:14:34;;;;;;;3.83;1.88;;;5.80;99.90;;;;;;6039814;23;20458;-83
2024/02/03 02:17:22;;;;;;;1.50;1.40;;;5.90;99.90;;;;;;6042856;23;20031;-83
2024/02/03 02:20:14;;;;;;;1.55;1.45;;;5.90;99.90;;;;;;6044839;23;20044;-83
2024/02/03 02:23:02;;;;;;;1.65;1.50;;;6.00;99.90;;;;;;6060753;23;20090;-84
2024/02/03 02:25:50;;;;;;;1.52;1.42;;;6.00;99.90;;;;;;6041056;23;20031;-81
2024/02/03 02:28:39;;;;;;;1.70;1.60;;;6.00;99.90;;;;;;6058792;23;20107;-82
2024/02/03 02:31:27;;;;;;;1.42;1.33;;;6.00;99.90;;;;;;6063100;23;20428;-81
2024/02/03 02:34:15;;;;;;;1.58;1.45;;;6.00;99.90;;;;;;6059980;23;20023;-80
2024/02/03 02:37:04;;;;;;;1.67;1.58;;;6.00;99.90;;;;;;6073141;23;20098;-80
2024/02/03 02:39:53;;;;;;;2.80;1.70;;;5.90;99.90;;;;;;6062325;23;20256;-83
2024/02/03 02:42:43;;;;;;;1.50;1.40;;;5.90;99.90;;;;;;6062779;23;20056;-83
2024/02/03 02:45:31;;;;;;;1.50;1.40;;;5.90;99.90;;;;;;6046228;23;20383;-80
2024/02/03 02:48:19;;;;;;;1.63;1.52;;;6.00;99.90;;;;;;6072882;23;20027;-81
2024/02/03 02:51:07;;;;;;;1.98;1.60;;;6.00;99.90;;;;;;6046690;23;20031;-82
2024/02/03 02:53:55;;;;;;;1.50;1.40;;;5.90;99.90;;;;;;6042568;23;20031;-82
2024/02/03 02:56:44;;;;;;;1.77;1.63;;;5.80;99.90;;;;;;6061222;23;20467;-83
2024/02/03 02:59:31;;;;;;;1.50;1.40;;;5.70;99.90;;;;;;6063808;23;20339;-81
2024/02/03 03:02:20;;;;;;;1.83;1.67;;;5.60;99.90;;;;;;6058344;23;20042;-81
2024/02/03 03:05:11;;;;;;;2.33;1.50;;;5.60;99.90;;;;;;6074935;23;20058;-78
2024/02/03 03:07:59;;;;;;;1.77;1.63;;;5.60;99.90;;;;;;6064265;23;20418;-82
2024/02/03 03:10:49;;;;;;;2.10;1.90;;;5.40;99.90;;;;;;6060528;23;20055;-79
2024/02/03 03:13:39;;;;;;;1.70;1.60;;;5.40;99.90;;;;;;6041111;23;20073;-80
2024/02/03 03:16:26;;;;;;;2.22;1.85;;;5.40;99.90;;;;;;6060512;23;20079;-81
2024/02/03 03:19:16;;;;;;;1.88;1.77;;;5.40;99.90;;;;;;6059194;23;20062;-80
2024/02/03 03:22:05;;;;;;;2.05;1.45;;;5.30;99.90;;;;;;6066672;23;20049;-80
2024/02/03 03:24:56;;;;;;;1.40;1.30;;;5.30;99.90;;;;;;6053377;23;20462;-81
2024/02/03 03:27:44;;;;;;;2.25;1.60;;;5.30;99.90;;;;;;6018754;23;20402;-80
2024/02/03 03:30:32;;;;;;;1.27;1.25;;;5.30;99.90;;;;;;6067143;23;20043;-81
2024/02/03 03:33:23;;;;;;;1.67;1.58;;;5.40;99.90;;;;;;6077499;23;20023;-81
2024/02/03 03:36:11;;;;;;;1.55;1.45;;;5.30;99.90;;;;;;6070720;23;20026;-81
2024/02/03 03:39:01;;;;;;;2.00;1.63;;;5.40;99.90;;;;;;6063459;23;20082;-81
2024/02/03 03:41:49;;;;;;;1.60;1.50;;;5.40;99.90;;;;;;6042548;23;20087;-80
2024/02/03 03:44:37;;;;;;;1.77;1.67;;;5.30;99.90;;;;;;6062027;23;20031;-83
2024/02/03 03:47:24;;;;;;;1.50;1.40;;;5.30;99.90;;;;;;6058814;23;20031;-83
2024/02/03 03:50:12;;;;;;;1.67;1.58;;;5.20;99.90;;;;;;6041611;23;20034;-82
2024/02/03 03:53:00;;;;;;;1.60;1.40;;;5.10;99.90;;;;;;6061512;23;20026;-81
2024/02/03 03:55:48;;;;;;;2.75;2.03;;;5.00;99.90;;;;;;6042408;23;20027;-81
2024/02/03 03:58:37;;;;;;;1.75;1.60;;;4.90;99.90;;;;;;6062295;23;20739;-81
2024/02/03 04:01:25;;;;;;;1.80;1.55;;;4.90;99.90;;;;;;6059536;23;20037;-79
2024/02/03 04:04:12;;;;;;;1.50;1.40;;;4.90;99.90;;;;;;6038942;23;20038;-81
2024/02/03 04:07:02;;;;;;;1.38;1.27;;;4.80;99.90;;;;;;6071757;23;20054;-80
2024/02/03 04:09:53;;;;;;;3.67;1.65;;;4.80;99.90;;;;;;6063853;23;20029;-81
2024/02/03 04:12:44;;;;;;;1.60;1.50;;;4.80;99.90;;;;;;6062739;23;20141;-85
2024/02/03 04:15:34;;;;;;;1.60;1.50;;;4.90;99.90;;;;;;6071500;23;20023;-78
2024/02/03 04:18:25;;;;;;;1.50;1.40;;;4.90;99.90;;;;;;6034635;23;20392;-83
2024/02/03 04:21:13;;;;;;;2.95;1.90;;;4.80;99.90;;;;;;6072838;23;20133;-80
2024/02/03 04:24:01;;;;;;;2.55;1.75;;;4.70;99.90;;;;;;6070420;23;20030;-81
2024/02/03 04:26:49;;;;;;;1.40;1.30;;;4.70;99.90;;;;;;6073944;23;20031;-80
2024/02/03 04:29:43;;;;;;;1.90;1.70;;;4.70;99.90;;;;;;6067762;23;20055;-80
2024/02/03 04:32:35;;;;;;;1.70;1.60;;;4.60;99.90;;;;;;6071247;23;20027;-82
2024/02/03 04:35:23;;;;;;;1.50;1.40;;;4.70;99.90;;;;;;6062974;23;20050;-83
2024/02/03 04:38:12;;;;;;;1.88;1.67;;;4.80;99.90;;;;;;6060737;23;20050;-80
2024/02/03 04:41:00;;;;;;;1.77;1.67;;;4.90;99.90;;;;;;6064682;23;20062;-83
2024/02/03 04:43:49;;;;;;;1.83;1.30;;;4.90;99.90;;;;;;6060672;23;20088;-83
2024/02/03 04:46:37;;;;;;;2.28;1.70;;;4.90;99.90;;;;;;6044219;23;20075;-78
2024/02/03 04:49:24;;;;;;;1.48;1.38;;;4.80;99.90;;;;;;6039405;23;20030;-81
2024/02/03 04:52:12;;;;;;;2.35;1.70;;;4.80;99.90;;;;;;6080055;23;20028;-81
2024/02/03 04:55:00;;;;;;;1.80;1.52;;;4.80;99.90;;;;;;6069459;23;20041;-84
2024/02/03 04:57:49;;;;;;;2.45;1.80;;;4.70;99.90;;;;;;6060665;23;20510;-83
2024/02/03 05:00:38;;;;;;;1.98;1.67;;;4.70;99.90;;;;;;6087819;23;20038;-80
2024/02/03 05:03:26;;;;;;;2.40;1.80;;;4.70;99.90;;;;;;6088314;23;20030;-81
2024/02/03 05:06:21;;;;;;;3.95;2.53;;;4.60;99.90;;;;;;6079835;23;20022;-82
2024/02/03 05:09:09;;;;;;;2.00;1.80;;;4.60;99.90;;;;;;6073141;23;20050;-79
2024/02/03 05:11:59;;;;;;;3.75;2.47;;;4.50;99.90;;;;;;6087187;23;20043;-83
2024/02/03 05:14:48;;;;;;;2.33;1.90;;;4.30;99.90;;;;;;6081489;23;20038;-79
2024/02/03 05:17:36;;;;;;;3.28;2.35;;;4.20;99.90;;;;;;6055093;23;20114;-81
2024/02/03 05:20:23;;;;;;;3.63;2.13;;;4.10;99.90;;;;;;6072633;23;20037;-83
2024/02/03 05:23:11;;;;;;;2.17;1.90;;;4.00;99.90;;;;;;6076069;23;20027;-81
2024/02/03 05:25:59;;;;;;;3.28;2.75;;;4.00;99.90;;;;;;6057981;23;20041;-79
2024/02/03 05:28:46;;;;;;;1.98;1.77;;;4.00;99.90;;;;;;6057467;23;20023;-81
2024/02/03 05:31:42;;;;;;;1.90;1.75;;;4.00;99.90;;;;;;6072426;23;20039;-80
2024/02/03 05:34:29;;;;;;;1.95;1.60;;;3.90;99.90;;;;;;6055656;23;20054;-84
2024/02/03 05:37:17;;;;;;;1.70;1.58;;;3.80;99.90;;;;;;6072566;23;20023;-83
2024/02/03 05:40:07;;;;;;;2.78;1.90;;;3.80;99.90;;;;;;6070062;23;20050;-82
2024/02/03 05:42:55;;;;;;;3.53;1.70;;;3.60;99.90;;;;;;6071159;23;20375;-82
2024/02/03 05:45:43;;;;;;;2.00;1.80;;;3.50;99.90;;;;;;6065975;23;20010;-79
2024/02/03 05:48:31;;;;;;;1.88;1.60;;;3.30;99.90;;;;;;6068399;23;20083;-81
2024/02/03 05:51:19;;;;;;;2.13;1.90;;;3.10;99.90;;;;;;6080786;23;20074;-80
2024/02/03 05:54:07;;;;;;;2.30;2.10;;;2.90;99.90;;;;;;6082131;23;20066;-80
2024/02/03 05:56:55;;;;;;;3.63;2.30;;;2.70;99.90;;;;;;6051458;23;20054;-78
2024/02/03 05:59:47;;;;;;;4.75;3.00;;;2.60;99.90;;;;;;6078320;23;20019;-81
2024/02/03 06:02:40;;;;;;;9.05;3.70;;;2.40;99.90;;;;;;6063754;23;20027;-79
2024/02/03 06:05:29;;;;;;;4.95;2.78;;;2.20;99.90;;;;;;6064629;23;20205;-80
2024/02/03 06:08:17;;;;;;;10.48;5.47;;;2.00;99.90;;;;;;6044267;23;20109;-79
2024/02/03 06:11:07;;;;;;;9.27;5.30;;;1.90;99.90;;;;;;6063533;23;20109;-82
2024/02/03 06:13:55;;;;;;;12.48;7.00;;;1.80;99.90;;;;;;6063471;23;20109;-82
2024/02/03 06:16:42;;;;;;;12.20;6.35;;;1.60;99.90;;;;;;6059227;23;20029;-82
2024/02/03 06:19:32;;;;;;;5.60;3.63;;;1.60;99.90;;;;;;6061651;23;20034;-80
2024/02/03 06:22:22;;;;;;;5.28;2.60;;;1.60;99.90;;;;;;6059691;23;20110;-80
2024/02/03 06:25:11;;;;;;;3.47;2.60;;;1.60;99.90;;;;;;6028542;23;20121;-81
2024/02/03 06:27:58;;;;;;;3.50;2.53;;;1.60;99.90;;;;;;6067499;23;20055;-76
2024/02/03 06:30:46;;;;;;;3.78;2.88;;;1.50;99.90;;;;;;6050714;23;20046;-78
2024/02/03 06:33:36;;;;;;;3.53;2.25;;;1.40;1.00;;;;;;6059077;23;20027;-78
2024/02/03 06:36:23;;;;;;;2.45;2.25;;;1.30;1.00;;;;;;6071663;23;20174;-81
2024/02/03 06:39:11;;;;;;;6.03;3.05;;;1.30;1.00;;;;;;6070784;23;20419;-79
2024/02/03 06:41:59;;;;;;;3.70;2.20;;;1.40;1.00;;;;;;6046125;23;20031;-78
2024/02/03 06:44:49;;;;;;;3.05;2.35;;;1.50;1.00;;;;;;6061515;23;20065;-80
2024/02/03 06:47:41;;;;;;;3.20;2.30;;;1.50;1.00;;;;;;6059688;23;20466;-80
2024/02/03 06:50:32;;;;;;;3.97;2.60;;;1.50;1.00;;;;;;6061074;23;20097;-77
2024/02/03 06:53:23;;;;;;;5.60;2.40;;;1.40;1.00;;;;;;6055971;23;20023;-77
2024/02/03 06:56:11;;;;;;;3.05;2.70;;;1.30;1.00;;;;;;6054903;23;20034;-77
2024/02/03 06:58:59;;;;;;;3.47;2.47;;;1.30;38.50;;;;;;6054577;23;20078;-78
2024/02/03 07:01:50;;;;;;;3.15;2.65;;;1.20;65.80;;;;;;6055886;23;20091;-78
2024/02/03 07:04:37;;;;;;;5.15;2.97;;;1.10;99.90;;;;;;6055969;23;20035;-78
2024/02/03 07:07:26;;;;;;;3.80;3.13;;;1.10;99.90;;;;;;6074576;23;20046;-78
2024/02/03 07:10:14;;;;;;;4.10;2.92;;;1.10;99.90;;;;;;6068289;23;20628;-78
2024/02/03 07:13:01;;;;;;;4.13;3.00;;;1.20;99.90;;;;;;6036784;23;20023;-79
2024/02/03 07:15:51;;;;;;;4.70;3.75;;;1.40;99.90;;;;;;6036330;23;20501;-78
2024/02/03 07:18:41;;;;;;;4.00;3.60;;;1.50;99.90;;;;;;6059389;23;20105;-76
2024/02/03 07:21:29;;;;;;;6.00;4.80;;;1.60;99.90;;;;;;6056135;23;20030;-77
2024/02/03 07:24:16;;;;;;;7.53;6.05;;;1.80;99.90;;;;;;6070862;23;20030;-78
2024/02/03 07:27:04;;;;;;;10.45;6.18;;;2.00;99.90;;;;;;6037479;23;20030;-76
2024/02/03 07:29:51;;;;;;;7.43;5.28;;;2.10;43.60;;;;;;6037833;23;20373;-78
2024/02/03 07:32:41;;;;;;;7.95;4.88;;;2.30;1.00;;;;;;6059270;23;20023;-79
2024/02/03 07:35:29;;;;;;;8.82;4.80;;;2.50;1.00;;;;;;6057499;23;20078;-77
2024/02/03 07:38:18;;;;;;;7.32;4.20;;;2.70;1.00;;;;;;6056529;23;20049;-78
2024/02/03 07:41:07;;;;;;;6.10;3.83;;;3.00;1.00;;;;;;6060264;23;20099;-78
2024/02/03 07:43:58;;;;;;;6.38;3.63;;;3.50;1.00;;;;;;6057538;23;20041;-78
2024/02/03 07:46:46;;;;;;;6.25;3.38;;;4.20;1.00;;;;;;6061097;23;20054;-77
2024/02/03 07:49:35;;;;;;;4.32;3.40;;;4.90;99.90;;;;;;6057972;23;20033;-76
2024/02/03 07:52:23;;;;;;;3.53;2.72;;;5.20;99.90;;;;;;6061070;23;20500;-78
2024/02/03 07:55:12;;;;;;;6.10;3.38;;;5.50;99.90;;;;;;6069081;23;20033;-79
2024/02/03 07:58:02;;;;;;;5.22;3.78;;;5.60;99.90;;;;;;6062376;23;20027;-79
2024/02/03 08:00:50;;;;;;;6.57;3.10;;;5.40;99.90;;;;;;6060462;23;20026;-78
2024/02/03 08:03:38;;;;;;;5.93;3.53;;;5.20;99.90;;;;;;6046245;23;20047;-75
2024/02/03 08:06:26;;;;;;;6.80;3.55;;;5.00;99.90;;;;;;6069723;23;20023;-78
2024/02/03 08:09:14;;;;;;;6.85;3.83;;;4.90;99.90;;;;;;6043274;23;20035;-78
2024/02/03 08:12:04;;;;;;;3.95;3.10;;;5.00;99.90;;;;;;6077113;23;20090;-78
2024/02/03 08:14:52;;;;;;;3.95;3.00;;;5.10;99.90;;;;;;6057162;23;20030;-77
2024/02/03 08:17:48;;;;;;;8.68;3.25;;;5.10;99.90;;;;;;6049112;23;20082;-77
2024/02/03 08:20:37;;;;;;;4.38;2.88;;;5.20;99.90;;;;;;6061120;23;20031;-79
2024/02/03 08:23:25;;;;;;;5.10;2.90;;;5.30;99.90;;;;;;6054110;23;20050;-77
2024/02/03 08:26:12;;;;;;;7.95;3.25;;;5.50;99.90;;;;;;6055709;23;20134;-77
2024/02/03 08:29:00;;;;;;;4.85;3.25;;;5.80;99.90;;;;;;6055253;23;20050;-79
2024/02/03 08:31:49;;;;;;;3.85;3.05;;;6.10;99.90;;;;;;6054556;23;20130;-78
2024/02/03 08:34:40;;;;;;;4.80;3.00;;;6.20;99.90;;;;;;6033099;23;20027;-78
2024/02/03 08:37:47;;;;;;;5.57;3.15;;;6.30;99.90;;;;;;6056527;23;20027;-79
2024/02/03 08:40:35;;;;;;;3.03;2.72;;;6.30;99.90;;;;;;6056001;23;20054;-77
2024/02/03 08:43:22;;;;;;;3.28;2.80;;;6.50;99.90;;;;;;6057433;23;20117;-79
2024/02/03 08:46:10;;;;;;;5.93;3.03;;;6.70;99.90;;;;;;6060341;23;20315;-76
2024/02/03 08:48:58;;;;;;;3.65;2.63;;;7.10;99.90;;;;;;6035534;23;20074;-77
2024/02/03 08:51:48;;;;;;;4.65;2.67;;;7.50;99.90;;;;;;6045528;23;20458;-76
2024/02/03 08:54:38;;;;;;;2.70;2.05;;;7.80;99.90;;;;;;6069744;23;20078;-78
2024/02/03 08:57:27;;;;;;;3.22;2.25;;;8.00;99.90;;;;;;6067746;23;20030;-79
2024/02/03 09:00:15;;;;;;;2.47;2.10;;;8.30;99.90;;;;;;6030736;23;20042;-78
2024/02/03 09:03:04;;;;;;;3.03;2.38;;;8.80;99.90;;;;;;6050654;23;20041;-78
2024/02/03 09:05:51;;;;;;;2.67;2.00;;;9.40;99.90;;;;;;6060921;23;20042;-77
2024/02/03 09:08:40;;;;;;;3.88;2.40;;;9.60;95.20;;;;;;6036468;23;20030;-78
2024/02/03 09:11:30;;;;;;;2.85;2.08;;;9.30;90.70;;;;;;6057285;23;20101;-78
2024/02/03 09:14:17;;;;;;;14.63;7.95;;;9.00;89.70;;;;;;6018538;23;20026;-79
2024/02/03 09:17:06;;;;;;;2.53;2.33;;;8.60;92.50;;;;;;6037653;23;20022;-78
2024/02/03 09:19:53;;;;;;;3.03;2.33;;;8.30;97.10;;;;;;6055505;23;20054;-78
2024/02/03 09:22:43;;;;;;;2.75;2.53;;;8.10;99.90;;;;;;6057840;23;20559;-78
2024/02/03 09:25:31;;;;;;;3.78;2.70;;;8.00;99.90;;;;;;6056895;23;20134;-79
2024/02/03 09:28:19;;;;;;;4.82;2.80;;;7.80;99.90;;;;;;6035023;23;20030;-78
2024/02/03 09:31:07;;;;;;;3.58;2.53;;;7.70;99.90;;;;;;6054848;23;20033;-78
2024/02/03 09:33:54;;;;;;;5.63;3.03;;;7.60;99.90;;;;;;6056417;23;20031;-76
2024/02/03 09:36:41;;;;;;;3.17;2.60;;;7.50;99.90;;;;;;6064583;23;20465;-78
2024/02/03 09:39:32;;;;;;;3.90;2.85;;;7.60;99.90;;;;;;6066217;23;20606;-78
2024/02/03 09:42:20;;;;;;;3.60;2.70;;;7.60;99.90;;;;;;6049402;23;20406;-78
2024/02/03 09:45:08;;;;;;;4.63;3.13;;;7.80;99.90;;;;;;6029943;23;20023;-78
2024/02/03 09:47:56;;;;;;;3.95;3.20;;;7.80;99.90;;;;;;6085554;23;20042;-77
2024/02/03 09:50:46;;;;;;;3.88;2.80;;;8.00;99.90;;;;;;6062386;23;20038;-78
2024/02/03 09:53:33;;;;;;;3.13;2.83;;;8.20;99.90;;;;;;6038650;23;20373;-78
2024/02/03 09:56:21;;;;;;;4.47;2.65;;;8.30;99.90;;;;;;6065933;23;20027;-78
2024/02/03 09:59:08;;;;;;;4.05;2.72;;;8.30;99.90;;;;;;6056737;23;20026;-78
2024/02/03 10:01:58;;;;;;;4.13;2.78;;;8.50;99.90;;;;;;6015334;23;20049;-77
2024/02/03 10:04:47;;;;;;;3.08;2.60;;;8.60;99.90;;;;;;6035451;23;20035;-79
2024/02/03 10:07:36;;;;;;;6.63;5.93;;;8.80;99.90;;;;;;6056391;23;20655;-78
2024/02/03 10:10:25;;;;;;;4.88;2.70;;;9.10;99.90;;;;;;6056067;23;20027;-78
2024/02/03 10:13:34;;;;;;;3.13;2.45;;;9.20;99.90;;;;;;5983050;24;20025;-77
2024/02/03 10:16:21;;;;;;;2.78;2.47;;;9.20;99.90;;;;;;5967780;23;20489;-77
2024/02/03 10:19:11;;;;;;;3.85;3.38;;;9.30;99.90;;;;;;5988270;24;20039;-78
2024/02/03 10:21:58;;;;;;;4.03;3.22;;;9.40;99.90;;;;;;5949159;24;20036;-79
2024/02/03 10:24:47;;;;;;;4.53;3.10;;;9.50;99.90;;;;;;5971746;24;20242;-78
2024/02/03 10:27:35;;;;;;;3.22;2.88;;;9.30;99.90;;;;;;5942037;24;20682;-77
2024/02/03 10:30:23;;;;;;;5.68;3.85;;;8.70;99.90;;;;;;5985969;23;20210;-78
2024/02/03 10:33:13;;;;;;;4.32;3.40;;;8.30;99.90;;;;;;6061978;23;20027;-78
2024/02/03 10:36:03;;;;;;;4.60;3.08;;;8.20;99.90;;;;;;6055455;23;20439;-77
2024/02/03 10:38:50;;;;;;;6.72;3.10;;;8.30;99.90;;;;;;6055653;23;20089;-77
2024/02/03 10:41:40;;;;;;;4.32;3.15;;;8.40;99.90;;;;;;6055313;23;20034;-77
2024/02/03 10:44:31;;;;;;;4.80;3.47;;;8.50;99.90;;;;;;6055656;23;20035;-79
2024/02/03 10:47:23;;;;;;;4.93;2.97;;;9.00;99.90;;;;;;6053647;23;20044;-78
2024/02/03 10:50:14;;;;;;;5.65;3.30;;;9.10;99.90;;;;;;6056339;23;20023;-78
2024/02/03 10:53:06;;;;;;;4.82;3.42;;;9.70;99.90;;;;;;6034899;23;20027;-78
2024/02/03 10:56:00;;;;;;;5.70;3.13;;;10.00;99.90;;;;;;6062707;23;20053;-77
2024/02/03 10:58:49;;;;;;;3.83;3.15;;;10.40;99.90;;;;;;6055755;23;20050;-79
2024/02/03 11:01:36;;;;;;;5.40;2.75;;;10.50;99.90;;;;;;6054182;23;20030;-79
2024/02/03 11:04:39;;;;;;;4.03;2.88;;;10.40;97.90;;;;;;6036062;23;20030;-77
2024/02/03 11:07:30;;;;;;;4.83;3.10;;;10.50;97.50;;;;;;6035152;23;20627;-77
2024/02/03 11:10:25;;;;;;;3.10;2.55;;;10.30;96.90;;;;;;6053519;23;20061;-77
2024/02/03 11:13:25;;;;;;;4.18;3.13;;;9.90;94.20;;;;;;6036716;23;20106;-79
2024/02/03 11:16:14;;;;;;;4.72;3.20;;;9.40;99.90;;;;;;6056343;23;20033;-76
2024/02/03 11:19:03;;;;;;;3.63;3.03;;;9.20;99.90;;;;;;6060442;23;20516;-79
2024/02/03 11:21:55;;;;;;;4.20;3.15;;;9.30;99.90;;;;;;6054316;23;20055;-78
2024/02/03 11:24:44;;;;;;;;;;;9.20;99.90;;;;;;6079940;23;20036;-75
2024/02/03 11:27:34;;;;;;;4.25;3.22;;;9.40;99.90;;;;;;6070351;23;20180;-77
2024/02/03 11:30:23;;;;;;;4.90;2.92;;;10.10;99.90;;;;;;6085360;23;20054;-78
2024/02/03 11:33:11;;;;;;;3.05;2.75;;;10.10;99.90;;;;;;6047186;23;20059;-78
2024/02/03 11:36:02;;;;;;;3.15;2.70;;;10.10;99.90;;;;;;6085369;23;20087;-77
2024/02/03 11:38:53;;;;;;;3.35;2.63;;;9.80;99.90;;;;;;6037649;23;20058;-78
2024/02/03 11:41:44;;;;;;;4.93;3.28;;;9.70;99.90;;;;;;6056551;23;20056;-79
2024/02/03 11:44:55;;;;;;;3.50;2.83;;;10.00;99.90;;;;;;6022962;23;20110;-79
2024/02/03 11:47:43;;;;;;;3.33;2.50;;;10.50;99.90;;;;;;6058914;23;20071;-78
2024/02/03 11:50:37;;;;;;;3.20;2.35;;;10.60;99.90;;;;;;6056283;23;20133;-77
2024/02/03 11:53:26;;;;;;;3.38;2.60;;;10.40;99.90;;;;;;6054933;23;20086;-76
2024/02/03 11:56:13;;;;;;;3.65;3.00;;;10.20;99.90;;;;;;6055679;23;20056;-79
2024/02/03 11:59:01;;;;;;;5.65;2.95;;;10.10;99.90;;;;;;6058753;23;20054;-79
2024/02/03 12:01:50;;;;;;;20.10;8.65;;;9.80;99.90;;;;;;6059919;23;20031;-78
2024/02/03 12:04:37;;;;;;;2.58;2.10;;;9.80;99.90;;;;;;6068285;23;20023;-78
2024/02/03 12:07:28;;;;;;;12.02;5.80;;;9.70;99.90;;;;;;6073374;23;20022;-77
2024/02/03 12:10:16;;;;;;;3.88;2.28;;;9.80;99.90;;;;;;6077496;23;20506;-75
2024/02/03 12:13:04;;;;;;;4.55;2.55;;;10.10;99.90;;;;;;6077629;23;20034;-78
2024/02/03 12:15:52;;;;;;;5.22;2.72;;;10.20;99.90;;;;;;6055605;23;20023;-76
2024/02/03 12:18:40;;;;;;;6.18;2.42;;;10.30;99.90;;;;;;6073566;23;20029;-77
2024/02/03 12:21:31;;;;;;;4.05;2.22;;;10.30;99.90;;;;;;6052046;23;20034;-77
2024/02/03 12:24:18;;;;;;;4.63;2.20;;;10.20;99.90;;;;;;6074585;23;20117;-77
2024/02/03 12:27:07;;;;;;;3.40;2.05;;;10.10;99.90;;;;;;6078911;23;20058;-77
2024/02/03 12:29:56;;;;;;;3.35;2.10;;;10.00;99.90;;;;;;6047917;23;20106;-79
2024/02/03 12:32:45;;;;;;;4.45;1.60;;;10.00;99.90;;;;;;6067149;23;20026;-78
2024/02/03 12:35:32;;;;;;;7.65;3.38;;;10.00;99.90;;;;;;6065021;23;20035;-77
2024/02/03 12:38:21;;;;;;;1.40;1.30;;;10.00;99.90;;;;;;6056768;23;20082;-78
2024/02/03 12:41:10;;;;;;;1.77;1.60;;;10.00;99.90;;;;;;6057207;23;20034;-78
2024/02/03 12:43:59;;;;;;;2.25;1.40;;;10.30;99.90;;;;;;6058521;23;20767;-79
2024/02/03 12:46:47;;;;;;;2.25;1.67;;;10.30;99.90;;;;;;6057721;23;20370;-78
2024/02/03 12:49:35;;;;;;;1.20;1.10;;;10.20;99.90;;;;;;6055693;23;20093;-77
2024/02/03 12:52:23;;;;;;;1.83;1.58;;;10.30;99.90;;;;;;6038810;23;20027;-78
2024/02/03 12:55:10;;;;;;;1.23;1.13;;;10.70;99.90;;;;;;6062018;23;20023;-78
2024/02/03 12:58:01;;;;;;;1.63;1.17;;;11.60;99.90;;;;;;6060706;23;20588;-76
2024/02/03 13:00:50;;;;;;;1.05;0.93;;;12.70;99.90;;;;;;6059064;23;20415;-79
2024/02/03 13:03:40;;;;;;;3.33;1.10;;;13.40;99.90;;;;;;6060830;23;20453;-77
2024/02/03 13:06:27;;;;;;;0.80;0.80;;;12.80;99.90;;;;;;6069050;23;20030;-78
2024/02/03 13:09:15;;;;;;;1.73;1.02;;;12.00;99.00;;;;;;6068617;23;20041;-77
2024/02/03 13:12:03;;;;;;;3.10;1.00;;;12.70;99.60;;;;;;6057149;23;20042;-78
2024/02/03 13:14:51;;;;;;;1.92;1.20;;;12.90;94.00;;;;;;6059202;23;20026;-78
2024/02/03 13:17:38;;;;;;;2.90;1.20;;;13.00;90.20;;;;;;6058526;23;20027;-77
2024/02/03 13:20:27;;;;;;;2.50;1.30;;;12.70;83.50;;;;;;6058816;23;20110;-78
2024/02/03 13:23:15;;;;;;;1.80;1.17;;;12.50;89.10;;;;;;6055423;23;20030;-78
2024/02/03 13:26:07;;;;;;;1.38;1.10;;;12.40;83.30;;;;;;6055754;23;20027;-79
2024/02/03 13:28:55;;;;;;;0.80;0.80;;;11.90;83.10;;;;;;6057825;23;20029;-79
2024/02/03 13:31:43;;;;;;;1.58;1.23;;;11.70;91.40;;;;;;6059153;23;20063;-77
2024/02/03 13:34:30;;;;;;;1.40;1.10;;;11.60;96.90;;;;;;6054852;23;20066;-79
2024/02/03 13:37:18;;;;;;;1.00;0.93;;;12.70;95.70;;;;;;6057529;23;20031;-79
2024/02/03 13:40:07;;;;;;;2.17;1.15;;;13.80;79.10;;;;;;6059177;23;20035;-78
2024/02/03 13:43:01;;;;;;;1.30;0.93;;;15.30;51.70;;;;;;6062039;23;20026;-78
2024/02/03 13:45:52;;;;;;;0.95;0.82;;;15.30;28.00;;;;;;6054730;23;20041;-79
2024/02/03 13:48:40;;;;;;;1.38;0.90;;;15.80;22.60;;;;;;6055294;23;20438;-77
2024/02/03 13:51:30;;;;;;;2.47;1.33;;;15.60;14.00;;;;;;6060976;23;20109;-78
2024/02/03 13:54:19;;;;;;;1.00;0.82;;;16.00;7.30;;;;;;6064404;23;20094;-77
2024/02/03 13:57:07;;;;;;;0.98;0.88;;;16.20;1.00;;;;;;6063988;23;20369;-78
2024/02/03 13:59:54;;;;;;;0.80;0.75;;;16.30;1.00;;;;;;6055605;23;20153;-77
2024/02/03 14:02:41;;;;;;;1.60;0.93;;;15.90;1.00;;;;;;6056653;23;20106;-78
2024/02/03 14:05:31;;;;;;;0.85;0.60;;;15.10;1.00;;;;;;6060344;23;20042;-79
2024/02/03 14:08:19;;;;;;;2.17;0.63;;;15.40;1.00;;;;;;6033018;23;20031;-80
2024/02/03 14:11:11;;;;;;;0.82;0.60;;;15.60;1.00;;;;;;6053033;23;20019;-78
2024/02/03 14:13:58;;;;;;;0.55;0.38;;;14.90;1.00;;;;;;6054634;23;20033;-78
2024/02/03 14:16:46;;;;;;;1.05;0.57;;;14.40;1.00;;;;;;6055070;23;20027;-77
2024/02/03 14:19:35;;;;;;;0.52;0.40;;;14.50;1.00;;;;;;6057076;23;20034;-77
2024/02/03 14:22:22;;;;;;;0.50;0.40;;;14.30;1.00;;;;;;6057536;23;20027;-78
2024/02/03 14:25:14;;;;;;;1.05;0.40;;;14.20;1.00;;;;;;6037802;23;20062;-77
2024/02/03 14:28:04;;;;;;;0.40;0.40;;;14.00;1.00;;;;;;6069440;23;20042;-76
2024/02/03 14:30:53;;;;;;;0.30;0.30;;;13.70;1.10;;;;;;6059942;23;20030;-78
2024/02/03 14:33:41;;;;;;;0.32;0.32;;;13.60;2.80;;;;;;6057920;23;20509;-77
2024/02/03 14:36:29;;;;;;;0.30;0.30;;;13.10;6.00;;;;;;6064605;23;20034;-77
2024/02/03 14:39:19;;;;;;;0.52;0.50;;;12.40;15.10;;;;;;6048695;23;20026;-78
2024/02/03 14:42:06;;;;;;;0.50;0.50;;;12.00;26.20;;;;;;6052983;23;20024;-78
2024/02/03 14:44:54;;;;;;;0.57;0.40;;;11.70;37.60;;;;;;6051621;23;20027;-78
2024/02/03 14:47:41;;;;;;;0.60;0.50;;;11.20;52.70;;;;;;6035160;23;20023;-77
2024/02/03 14:50:29;;;;;;;5.25;0.70;;;11.00;71.40;;;;;;6033680;23;20578;-77